createdAt,value
2023-03-10T00:00:01.318Z,1.7
2023-03-10T00:03:01.163Z,1.7
2023-03-10T00:06:01.346Z,1.7
2023-03-10T00:09:01.174Z,1.7
2023-03-10T00:12:01.161Z,1.7
2023-03-10T00:15:01.183Z,1.7
2023-03-10T00:18:01.171Z,1.7
2023-03-10T00:21:01.154Z,1.7
2023-03-10T00:24:01.202Z,1.7
2023-03-10T00:27:01.150Z,1.7
2023-03-10T00:30:01.240Z,1.7
2023-03-10T00:33:01.227Z,1.7
2023-03-10T00:36:01.205Z,1.7
2023-03-10T00:39:01.528Z,1.7
2023-03-10T00:42:01.130Z,1.7
2023-03-10T00:45:01.191Z,1.7
2023-03-10T00:48:01.150Z,1.7
2023-03-10T00:51:01.213Z,1.6
2023-03-10T00:54:01.210Z,1.6
2023-03-10T00:57:01.176Z,1.6
2023-03-10T01:00:01.186Z,1.6
2023-03-10T01:03:01.155Z,1.6
2023-03-10T01:06:01.164Z,1.6
2023-03-10T01:09:01.154Z,1.6
2023-03-10T01:12:01.346Z,1.6
2023-03-10T01:15:01.190Z,1.6
2023-03-10T01:18:01.298Z,1.6
2023-03-10T01:21:01.189Z,1.7
2023-03-10T01:24:01.170Z,1.7
2023-03-10T01:27:01.197Z,1.7
2023-03-10T01:30:01.189Z,1.7
2023-03-10T01:33:01.193Z,1.7
2023-03-10T01:36:01.267Z,1.7
2023-03-10T01:39:01.137Z,1.7
2023-03-10T01:42:01.130Z,1.7
2023-03-10T01:45:01.198Z,1.7
2023-03-10T01:48:01.206Z,1.7
2023-03-10T01:51:01.145Z,1.7
2023-03-10T01:54:01.202Z,1.7
2023-03-10T01:57:01.139Z,1.7
2023-03-10T02:00:01.201Z,1.7
2023-03-10T02:03:01.149Z,1.7
2023-03-10T02:06:01.149Z,1.7
2023-03-10T02:09:01.181Z,1.7
2023-03-10T02:12:01.175Z,1.7
2023-03-10T02:15:01.329Z,1.7
2023-03-10T02:18:01.302Z,1.7
2023-03-10T02:21:01.174Z,1.7
2023-03-10T02:24:02.112Z,1.7
2023-03-10T02:27:01.203Z,1.7
2023-03-10T02:30:01.322Z,1.7
2023-03-10T02:33:01.205Z,1.8
2023-03-10T02:36:01.194Z,1.8
2023-03-10T02:39:01.145Z,1.8
2023-03-10T02:42:01.133Z,1.8
2023-03-10T02:45:01.143Z,1.8
2023-03-10T02:48:01.152Z,1.8
2023-03-10T02:51:01.204Z,1.8
2023-03-10T02:54:01.147Z,1.8
2023-03-10T02:57:01.164Z,1.8
2023-03-10T03:00:01.247Z,1.8
2023-03-10T03:03:01.169Z,1.8
2023-03-10T03:06:01.168Z,1.8
2023-03-10T03:09:01.219Z,1.8
2023-03-10T03:12:01.206Z,1.9
2023-03-10T03:15:01.150Z,1.9
2023-03-10T03:18:01.166Z,1.9
2023-03-10T03:21:01.593Z,1.9
2023-03-10T03:24:01.294Z,1.9
2023-03-10T03:27:01.105Z,2
2023-03-10T03:30:01.223Z,2
2023-03-10T03:33:01.183Z,2
2023-03-10T03:36:01.231Z,2
2023-03-10T03:39:01.109Z,2
2023-03-10T03:42:01.161Z,2
2023-03-10T03:45:01.144Z,2
2023-03-10T03:48:01.169Z,2
2023-03-10T03:51:01.139Z,2
2023-03-10T03:54:01.233Z,2
2023-03-10T03:57:01.234Z,2
2023-03-10T04:00:01.266Z,2.1
2023-03-10T04:03:01.163Z,2.1
2023-03-10T04:06:01.132Z,2.1
2023-03-10T04:09:01.127Z,2.1
2023-03-10T04:12:01.201Z,2.1
2023-03-10T04:15:01.189Z,2.1
2023-03-10T04:18:01.220Z,2.1
2023-03-10T04:21:01.143Z,2.1
2023-03-10T04:24:01.225Z,2.2
2023-03-10T04:27:01.194Z,2.2
2023-03-10T04:30:01.302Z,2.2
2023-03-10T04:33:01.258Z,2.2
2023-03-10T04:36:01.324Z,2.2
2023-03-10T04:39:01.173Z,2.3
2023-03-10T04:42:01.154Z,2.3
2023-03-10T04:45:01.147Z,2.3
2023-03-10T04:48:01.141Z,2.3
2023-03-10T04:51:01.161Z,2.3
2023-03-10T04:54:01.210Z,2.4
2023-03-10T04:57:01.168Z,2.4
2023-03-10T05:00:03.647Z,2.4
2023-03-10T05:03:01.303Z,2.5
2023-03-10T05:06:01.245Z,2.5
2023-03-10T05:09:01.195Z,2.5
2023-03-10T05:12:01.193Z,2.5
2023-03-10T05:15:01.164Z,2.5
2023-03-10T05:18:01.173Z,2.5
2023-03-10T05:21:01.179Z,2.5
2023-03-10T05:24:01.238Z,2.5
2023-03-10T05:27:01.188Z,2.5
2023-03-10T05:30:01.208Z,2.5
2023-03-10T05:33:01.164Z,2.5
2023-03-10T05:36:01.280Z,2.5
2023-03-10T05:39:01.125Z,2.5
2023-03-10T05:42:01.195Z,2.5
2023-03-10T05:45:01.202Z,2.5
2023-03-10T05:48:01.238Z,2.5
2023-03-10T05:51:01.353Z,2.5
2023-03-10T05:54:01.315Z,2.5
2023-03-10T05:57:01.238Z,2.5
2023-03-10T06:00:01.270Z,2.5
2023-03-10T06:03:01.325Z,2.5
2023-03-10T06:06:01.396Z,2.5
2023-03-10T06:09:01.287Z,2.5
2023-03-10T06:12:01.229Z,2.5
2023-03-10T06:15:01.297Z,2.5
2023-03-10T06:18:01.208Z,2.5
2023-03-10T06:21:01.164Z,2.5
2023-03-10T06:24:01.423Z,2.8
2023-03-10T06:27:01.348Z,2.8
2023-03-10T06:30:01.608Z,2.8
2023-03-10T06:33:01.392Z,2.8
2023-03-10T06:36:01.326Z,2.8
2023-03-10T06:39:01.396Z,2.8
2023-03-10T06:42:01.403Z,2.8
2023-03-10T06:45:01.212Z,2.8
2023-03-10T06:48:01.208Z,2.8
2023-03-10T06:51:01.186Z,3.1
2023-03-10T06:54:01.326Z,3.1
2023-03-10T06:57:01.217Z,3.1
2023-03-10T07:00:01.338Z,3.1
2023-03-10T07:03:01.179Z,3.4
2023-03-10T07:06:01.172Z,3.4
2023-03-10T07:09:01.202Z,3.4
2023-03-10T07:12:01.248Z,3.4
2023-03-10T07:15:01.348Z,3.4
2023-03-10T07:18:01.365Z,3.5
2023-03-10T07:21:01.296Z,3.5
2023-03-10T07:24:01.261Z,3.5
2023-03-10T07:27:01.161Z,3.5
2023-03-10T07:30:01.357Z,3.5
2023-03-10T07:33:01.289Z,3.5
2023-03-10T07:36:01.249Z,3.5
2023-03-10T07:39:01.192Z,3.5
2023-03-10T07:42:01.248Z,3.6
2023-03-10T07:45:01.195Z,3.6
2023-03-10T07:48:01.367Z,3.6
2023-03-10T07:51:01.270Z,3.6
2023-03-10T07:54:01.191Z,3.6
2023-03-10T07:57:01.281Z,3.6
2023-03-10T08:00:01.761Z,3.9
2023-03-10T08:03:01.232Z,3.9
2023-03-10T08:06:01.214Z,3.9
2023-03-10T08:09:01.157Z,3.9
2023-03-10T08:12:01.233Z,3.9
2023-03-10T08:15:01.219Z,3.9
2023-03-10T08:18:01.667Z,3.9
2023-03-10T08:21:02.163Z,3.9
2023-03-10T08:24:01.973Z,3.9
2023-03-10T08:27:04.321Z,3.8
2023-03-10T08:30:02.899Z,3.8
2023-03-10T08:33:02.228Z,3.8
2023-03-10T08:36:02.355Z,3.8
2023-03-10T08:39:02.955Z,3.8
2023-03-10T08:45:01.662Z,3.8
2023-03-10T08:48:01.272Z,3.8
2023-03-10T08:51:01.228Z,3.8
2023-03-10T08:54:01.225Z,3.8
2023-03-10T08:57:01.242Z,3.8
2023-03-10T09:00:01.366Z,3.8
2023-03-10T09:03:01.489Z,3.8
2023-03-10T09:06:01.241Z,3.8
2023-03-10T09:09:01.387Z,3.8
2023-03-10T09:12:01.334Z,3.8
2023-03-10T09:15:01.167Z,3.8
2023-03-10T09:18:01.165Z,3.8
2023-03-10T09:21:01.217Z,3.8
2023-03-10T09:24:01.211Z,3.8
2023-03-10T09:27:01.245Z,3.8
2023-03-10T09:30:01.917Z,3.8
2023-03-10T09:33:01.425Z,3.8
2023-03-10T09:36:08.275Z,3.8
2023-03-10T09:39:01.361Z,3.8
2023-03-10T09:42:01.212Z,3.8
2023-03-10T09:45:01.257Z,3.8
2023-03-10T09:48:04.511Z,3.8
2023-03-10T09:51:01.369Z,3.8
2023-03-10T09:54:01.285Z,3.9
2023-03-10T09:57:01.171Z,3.9
2023-03-10T10:00:01.325Z,3.9
2023-03-10T10:03:01.415Z,3.9
2023-03-10T10:06:01.135Z,3.9
2023-03-10T10:09:05.873Z,3.9
2023-03-10T10:12:01.201Z,3.9
2023-03-10T10:15:01.173Z,3.9
2023-03-10T10:18:19.031Z,3.9
2023-03-10T10:21:01.204Z,3.9
2023-03-10T10:24:01.249Z,3.9
2023-03-10T10:27:01.165Z,3.9
2023-03-10T10:30:01.293Z,3.9
2023-03-10T10:33:01.181Z,3.9
2023-03-10T10:36:01.406Z,3.9
2023-03-10T10:39:01.232Z,3.9
2023-03-10T10:42:01.312Z,3.9
2023-03-10T10:45:01.199Z,3.9
2023-03-10T10:48:01.238Z,4.4
2023-03-10T10:51:01.191Z,4.4
2023-03-10T10:54:01.261Z,4.4
2023-03-10T10:57:01.184Z,4.4
2023-03-10T11:00:01.363Z,4.4
2023-03-10T11:03:01.225Z,4.4
2023-03-10T11:06:01.242Z,4.4
2023-03-10T11:09:01.195Z,4.4
2023-03-10T11:12:01.439Z,4.4
2023-03-10T11:15:01.331Z,4.4
2023-03-10T11:18:01.209Z,4.4
2023-03-10T11:21:01.296Z,4.4
2023-03-10T11:24:01.213Z,4.4
2023-03-10T11:27:01.216Z,4.4
2023-03-10T11:30:01.300Z,4.4
2023-03-10T11:33:01.226Z,4.4
2023-03-10T11:36:01.720Z,4.4
2023-03-10T11:39:01.281Z,4.4
2023-03-10T11:42:01.247Z,5
2023-03-10T11:45:01.338Z,5
2023-03-10T11:48:01.395Z,5
2023-03-10T11:51:01.268Z,5
2023-03-10T11:54:01.236Z,5
2023-03-10T11:57:01.263Z,5
2023-03-10T12:00:01.445Z,5
2023-03-10T12:03:01.228Z,5
2023-03-10T12:06:01.193Z,5
2023-03-10T12:09:01.217Z,5
2023-03-10T12:12:01.336Z,5
2023-03-10T12:15:01.203Z,5
2023-03-10T12:18:01.255Z,5
2023-03-10T12:21:01.366Z,5
2023-03-10T12:24:01.199Z,5
2023-03-10T12:27:01.276Z,5
2023-03-10T12:30:01.409Z,5
2023-03-10T12:33:01.183Z,5
2023-03-10T12:36:01.284Z,5
2023-03-10T12:39:01.260Z,5
2023-03-10T12:42:01.223Z,5
2023-03-10T12:45:01.230Z,5
2023-03-10T12:48:01.217Z,5
2023-03-10T12:51:01.211Z,5
2023-03-10T12:54:01.432Z,5
2023-03-10T12:57:01.234Z,5
2023-03-10T13:00:01.390Z,5
2023-03-10T13:03:01.274Z,5
2023-03-10T13:06:01.272Z,5
2023-03-10T13:09:01.264Z,5
2023-03-10T13:12:01.258Z,5
2023-03-10T13:15:01.249Z,5
2023-03-10T13:18:01.322Z,5
2023-03-10T13:21:01.197Z,5
2023-03-10T13:24:01.425Z,5
2023-03-10T13:27:01.297Z,5.5
2023-03-10T13:30:01.235Z,5.5
2023-03-10T13:33:01.232Z,5.5
2023-03-10T13:36:01.290Z,5.5
2023-03-10T13:39:01.217Z,5.5
2023-03-10T13:42:01.323Z,5.5
2023-03-10T13:45:01.222Z,5.5
2023-03-10T13:48:01.196Z,5.5
2023-03-10T13:51:01.244Z,5.5
2023-03-10T13:54:01.194Z,5.5
2023-03-10T13:57:01.211Z,5.5
2023-03-10T14:00:01.466Z,5.5
2023-03-10T14:03:01.241Z,5.5
2023-03-10T14:06:01.287Z,5.5
2023-03-10T14:09:01.269Z,5.5
2023-03-10T14:12:01.168Z,5.5
2023-03-10T14:15:01.228Z,5.5
2023-03-10T14:18:01.249Z,5.5
2023-03-10T14:21:01.206Z,5.2
2023-03-10T14:24:01.243Z,5.2
2023-03-10T14:27:01.194Z,5.2
2023-03-10T14:30:01.210Z,5.2
2023-03-10T14:33:01.406Z,5.2
2023-03-10T14:36:01.357Z,5.2
2023-03-10T14:39:01.305Z,5.2
2023-03-10T14:42:01.176Z,4.9
2023-03-10T14:45:01.217Z,4.9
2023-03-10T14:48:01.413Z,4.9
2023-03-10T14:51:01.179Z,4.8
2023-03-10T14:54:01.257Z,4.8
2023-03-10T14:57:01.166Z,4.8
2023-03-10T15:00:01.308Z,4.8
2023-03-10T15:03:01.306Z,4.8
2023-03-10T15:06:01.312Z,4.8
2023-03-10T15:09:01.269Z,4.8
2023-03-10T15:12:01.215Z,4.8
2023-03-10T15:15:01.219Z,4.8
2023-03-10T15:18:01.188Z,4.8
2023-03-10T15:21:01.229Z,4.8
2023-03-10T15:24:01.211Z,4.8
2023-03-10T15:27:01.208Z,4.8
2023-03-10T15:30:01.303Z,4.8
2023-03-10T15:33:01.237Z,4.8
2023-03-10T15:36:01.395Z,4.8
2023-03-10T15:39:01.250Z,4.8
2023-03-10T15:42:01.204Z,4.8
2023-03-10T15:45:01.199Z,4.8
2023-03-10T15:48:01.198Z,4.8
2023-03-10T15:51:01.207Z,4.8
2023-03-10T15:54:01.224Z,4.8
2023-03-10T15:57:01.262Z,4.5
2023-03-10T16:00:01.234Z,4.5
2023-03-10T16:03:01.232Z,4.5
2023-03-10T16:06:01.207Z,4.5
2023-03-10T16:09:01.254Z,4.5
2023-03-10T16:12:01.343Z,4.6
2023-03-10T16:15:01.170Z,4.6
2023-03-10T16:18:01.241Z,4.6
2023-03-10T16:21:01.283Z,4.6
2023-03-10T16:24:01.171Z,4.6
2023-03-10T16:27:01.320Z,4.6
2023-03-10T16:30:01.403Z,4.6
2023-03-10T16:33:01.195Z,4.6
2023-03-10T16:36:01.283Z,4.6
2023-03-10T16:39:01.239Z,4.6
2023-03-10T16:42:01.154Z,4.6
2023-03-10T16:45:01.353Z,4.6
2023-03-10T16:48:01.206Z,4.5
2023-03-10T16:51:01.199Z,4.5
2023-03-10T16:54:01.171Z,4.5
2023-03-10T16:57:01.166Z,4.5
2023-03-10T17:00:01.279Z,4.5
2023-03-10T17:03:01.282Z,4.5
2023-03-10T17:06:01.227Z,4.5
2023-03-10T17:09:01.206Z,4.5
2023-03-10T17:12:01.147Z,4.5
2023-03-10T17:15:01.169Z,4.5
2023-03-10T17:18:01.185Z,4.5
2023-03-10T17:21:01.126Z,4.5
2023-03-10T17:24:01.152Z,4.5
2023-03-10T17:27:01.153Z,4.5
2023-03-10T17:30:01.339Z,4.5
2023-03-10T17:33:01.220Z,4.5
2023-03-10T17:36:01.181Z,4.5
2023-03-10T17:39:01.152Z,4.3
2023-03-10T17:42:01.221Z,4.3
2023-03-10T17:45:01.112Z,4.3
2023-03-10T17:48:01.148Z,4.3
2023-03-10T17:51:01.323Z,4.3
2023-03-10T17:54:01.168Z,4.3
2023-03-10T17:57:01.191Z,4.3
2023-03-10T18:00:01.213Z,4.3
2023-03-10T18:03:01.520Z,4.2
2023-03-10T18:06:01.318Z,4.2
2023-03-10T18:09:01.163Z,4.1
2023-03-10T18:12:01.182Z,4.1
2023-03-10T18:15:01.190Z,4.1
2023-03-10T18:18:01.199Z,4.1
2023-03-10T18:21:01.209Z,4.1
2023-03-10T18:24:01.241Z,4.1
2023-03-10T18:27:01.209Z,4.1
2023-03-10T18:30:01.222Z,4.1
2023-03-10T18:33:01.164Z,4.1
2023-03-10T18:36:01.179Z,4.1
2023-03-10T18:39:01.184Z,4.1
2023-03-10T18:42:01.224Z,3.9
2023-03-10T18:45:01.170Z,3.9
2023-03-10T18:48:01.138Z,3.9
2023-03-10T18:51:01.199Z,3.9
2023-03-10T18:54:01.133Z,3.9
2023-03-10T18:57:01.152Z,3.9
2023-03-10T19:00:01.496Z,3.9
2023-03-10T19:03:01.274Z,3.9
2023-03-10T19:06:01.225Z,3.9
2023-03-10T19:09:01.134Z,3.9
2023-03-10T19:12:01.188Z,3.9
2023-03-10T19:15:01.137Z,3.9
2023-03-10T19:18:01.252Z,3.9
2023-03-10T19:21:01.121Z,3.9
2023-03-10T19:24:01.187Z,3.9
2023-03-10T19:27:01.217Z,3.9
2023-03-10T19:30:01.237Z,3.9
2023-03-10T19:33:01.120Z,3.9
2023-03-10T19:36:01.298Z,3.9
2023-03-10T19:39:01.199Z,3.9
2023-03-10T19:42:01.154Z,3.9
2023-03-10T19:45:01.124Z,3.9
2023-03-10T19:48:01.148Z,3.9
2023-03-10T19:51:01.154Z,3.9
2023-03-10T19:54:01.173Z,3.9
2023-03-10T19:57:01.316Z,3.4
2023-03-10T20:00:01.144Z,3.4
2023-03-10T20:03:01.299Z,3.4
2023-03-10T20:06:01.097Z,3.4
2023-03-10T20:09:01.131Z,3.4
2023-03-10T20:12:01.136Z,3.4
2023-03-10T20:15:01.190Z,3.4
2023-03-10T20:18:01.140Z,3.4
2023-03-10T20:21:01.123Z,3.4
2023-03-10T20:24:01.119Z,3.4
2023-03-10T20:27:01.160Z,3.4
2023-03-10T20:30:01.153Z,3.4
2023-03-10T20:33:01.134Z,3.1
2023-03-10T20:36:01.350Z,3.1
2023-03-10T20:39:01.250Z,3
2023-03-10T20:42:01.157Z,3
2023-03-10T20:45:01.139Z,2.8
2023-03-10T20:48:01.149Z,2.8
2023-03-10T20:51:01.267Z,2.7
2023-03-10T20:54:01.096Z,2.6
2023-03-10T20:57:01.181Z,2.6
2023-03-10T21:00:01.149Z,2.2
2023-03-10T21:03:01.148Z,2
2023-03-10T21:06:01.248Z,1.8
2023-03-10T21:09:01.480Z,1.8
2023-03-10T21:12:01.312Z,1.6
2023-03-10T21:15:01.137Z,1.4
2023-03-10T21:18:01.272Z,1.4
2023-03-10T21:21:01.175Z,1.3
2023-03-10T21:24:01.214Z,1.3
2023-03-10T21:27:01.154Z,1.2
2023-03-10T21:30:01.396Z,1.2
2023-03-10T21:33:01.185Z,1.2
2023-03-10T21:36:01.847Z,1
2023-03-10T21:39:01.475Z,1
2023-03-10T21:42:01.233Z,0.9
2023-03-10T21:45:01.913Z,0.9
2023-03-10T21:48:01.202Z,0.9
2023-03-10T21:51:01.314Z,0.8
2023-03-10T21:54:01.391Z,0.8
2023-03-10T21:57:01.234Z,0.8
2023-03-10T22:00:01.241Z,0.8
2023-03-10T22:03:01.197Z,0.8
2023-03-10T22:06:01.131Z,0.8
2023-03-10T22:09:01.228Z,0.8
2023-03-10T22:12:01.418Z,0.8
2023-03-10T22:15:01.290Z,0.8
2023-03-10T22:18:01.134Z,0.7
2023-03-10T22:21:01.265Z,0.7
2023-03-10T22:24:01.310Z,0.7
2023-03-10T22:27:01.218Z,0.7
2023-03-10T22:30:01.190Z,0.7
2023-03-10T22:33:01.228Z,0.7
2023-03-10T22:36:01.512Z,0.7
2023-03-10T22:39:01.161Z,0.7
2023-03-10T22:42:01.230Z,0.7
2023-03-10T22:45:01.198Z,0.7
2023-03-10T22:48:01.254Z,0.7
2023-03-10T22:51:01.186Z,0.7
2023-03-10T22:54:01.167Z,0.7
2023-03-10T22:57:01.168Z,0.7
2023-03-10T23:00:01.716Z,0.6
2023-03-10T23:03:01.347Z,0.6
2023-03-10T23:06:01.150Z,0.6
2023-03-10T23:09:01.322Z,0.6
2023-03-10T23:12:01.285Z,0.6
2023-03-10T23:15:03.654Z,0.6
2023-03-10T23:18:01.170Z,0.6
2023-03-10T23:21:01.354Z,0.6
2023-03-10T23:24:01.231Z,0.6
2023-03-10T23:27:01.134Z,0.6
2023-03-10T23:30:01.213Z,0.7
2023-03-10T23:33:01.251Z,0.7
2023-03-10T23:36:01.301Z,0.7
2023-03-10T23:39:01.183Z,0.6
2023-03-10T23:42:01.227Z,0.6
2023-03-10T23:45:01.157Z,0.6
2023-03-10T23:48:01.169Z,0.6
2023-03-10T23:51:01.190Z,0.6
2023-03-10T23:54:01.216Z,0.6
2023-03-10T23:57:01.155Z,0.6
